sensor_id;sensor_type;location;lat;lon;timestamp;temperature;humidity
25058;DHT22;13057;50.978;11.034;2022-08-25T00:01:58;21.10;98.60
25058;DHT22;13057;50.978;11.034;2022-08-25T00:04:25;21.10;98.80
25058;DHT22;13057;50.978;11.034;2022-08-25T00:06:51;21.10;98.60
25058;DHT22;13057;50.978;11.034;2022-08-25T00:09:20;21.10;98.60
25058;DHT22;13057;50.978;11.034;2022-08-25T00:11:47;21.10;98.50
25058;DHT22;13057;50.978;11.034;2022-08-25T00:14:18;21.10;98.60
25058;DHT22;13057;50.978;11.034;2022-08-25T00:16:45;21.00;98.70
25058;DHT22;13057;50.978;11.034;2022-08-25T00:19:15;21.00;98.80
25058;DHT22;13057;50.978;11.034;2022-08-25T00:21:42;20.90;98.80
25058;DHT22;13057;50.978;11.034;2022-08-25T00:24:09;20.90;98.70
25058;DHT22;13057;50.978;11.034;2022-08-25T00:26:39;20.90;99.00
25058;DHT22;13057;50.978;11.034;2022-08-25T00:29:06;20.80;98.90
25058;DHT22;13057;50.978;11.034;2022-08-25T00:31:32;20.80;99.00
25058;DHT22;13057;50.978;11.034;2022-08-25T00:33:58;20.80;99.10
25058;DHT22;13057;50.978;11.034;2022-08-25T00:36:26;20.80;99.00
25058;DHT22;13057;50.978;11.034;2022-08-25T00:38:53;20.80;99.10
25058;DHT22;13057;50.978;11.034;2022-08-25T00:41:21;20.80;99.10
25058;DHT22;13057;50.978;11.034;2022-08-25T00:43:59;20.70;99.20
25058;DHT22;13057;50.978;11.034;2022-08-25T00:46:29;20.70;99.30
25058;DHT22;13057;50.978;11.034;2022-08-25T00:48:59;20.60;99.30
25058;DHT22;13057;50.978;11.034;2022-08-25T00:51:36;20.60;99.50
25058;DHT22;13057;50.978;11.034;2022-08-25T00:54:04;20.60;99.50
25058;DHT22;13057;50.978;11.034;2022-08-25T00:56:31;20.60;99.70
25058;DHT22;13057;50.978;11.034;2022-08-25T00:58:59;20.60;99.70
25058;DHT22;13057;50.978;11.034;2022-08-25T01:01:26;20.60;99.90
25058;DHT22;13057;50.978;11.034;2022-08-25T01:03:52;20.60;99.90
25058;DHT22;13057;50.978;11.034;2022-08-25T01:06:18;20.50;99.90
25058;DHT22;13057;50.978;11.034;2022-08-25T01:08:45;20.50;99.90
25058;DHT22;13057;50.978;11.034;2022-08-25T01:11:11;20.50;99.90
25058;DHT22;13057;50.978;11.034;2022-08-25T01:13:43;20.40;99.90
25058;DHT22;13057;50.978;11.034;2022-08-25T01:16:11;20.50;99.90
25058;DHT22;13057;50.978;11.034;2022-08-25T01:18:49;20.50;99.90
25058;DHT22;13057;50.978;11.034;2022-08-25T01:21:18;20.40;99.90
25058;DHT22;13057;50.978;11.034;2022-08-25T01:23:45;20.40;99.90
25058;DHT22;13057;50.978;11.034;2022-08-25T01:26:18;20.40;99.90
25058;DHT22;13057;50.978;11.034;2022-08-25T01:28:47;20.40;99.90
25058;DHT22;13057;50.978;11.034;2022-08-25T01:31:27;20.30;99.90
25058;DHT22;13057;50.978;11.034;2022-08-25T01:33:53;20.30;99.90
25058;DHT22;13057;50.978;11.034;2022-08-25T01:36:20;20.20;99.90
25058;DHT22;13057;50.978;11.034;2022-08-25T01:38:47;20.20;99.90
25058;DHT22;13057;50.978;11.034;2022-08-25T01:41:20;20.20;99.90
25058;DHT22;13057;50.978;11.034;2022-08-25T01:43:46;20.20;99.90
25058;DHT22;13057;50.978;11.034;2022-08-25T01:46:12;20.20;99.90
25058;DHT22;13057;50.978;11.034;2022-08-25T01:48:38;20.10;99.90
25058;DHT22;13057;50.978;11.034;2022-08-25T01:51:04;20.10;99.90
25058;DHT22;13057;50.978;11.034;2022-08-25T01:53:30;20.10;99.90
25058;DHT22;13057;50.978;11.034;2022-08-25T01:55:57;20.00;99.90
25058;DHT22;13057;50.978;11.034;2022-08-25T01:58:29;20.00;99.90
25058;DHT22;13057;50.978;11.034;2022-08-25T02:00:57;20.00;99.90
25058;DHT22;13057;50.978;11.034;2022-08-25T02:03:25;20.00;99.90
25058;DHT22;13057;50.978;11.034;2022-08-25T02:05:52;20.00;99.90
25058;DHT22;13057;50.978;11.034;2022-08-25T02:08:19;19.90;99.90
25058;DHT22;13057;50.978;11.034;2022-08-25T02:10:45;19.90;99.90
25058;DHT22;13057;50.978;11.034;2022-08-25T02:13:11;19.80;99.90
25058;DHT22;13057;50.978;11.034;2022-08-25T02:15:41;19.80;99.90
25058;DHT22;13057;50.978;11.034;2022-08-25T02:18:07;19.80;99.90
25058;DHT22;13057;50.978;11.034;2022-08-25T02:20:33;19.80;99.90
25058;DHT22;13057;50.978;11.034;2022-08-25T02:22:59;19.80;99.90
25058;DHT22;13057;50.978;11.034;2022-08-25T02:25:25;19.80;99.90
25058;DHT22;13057;50.978;11.034;2022-08-25T02:27:51;19.80;99.90
25058;DHT22;13057;50.978;11.034;2022-08-25T02:30:16;19.80;99.90
25058;DHT22;13057;50.978;11.034;2022-08-25T02:32:43;19.70;99.90
25058;DHT22;13057;50.978;11.034;2022-08-25T02:35:09;19.70;99.90
25058;DHT22;13057;50.978;11.034;2022-08-25T02:37:35;19.70;99.90
25058;DHT22;13057;50.978;11.034;2022-08-25T02:40:02;19.60;99.90
25058;DHT22;13057;50.978;11.034;2022-08-25T02:42:28;19.60;99.90
25058;DHT22;13057;50.978;11.034;2022-08-25T02:44:54;19.70;99.90
25058;DHT22;13057;50.978;11.034;2022-08-25T02:47:20;19.70;99.90
25058;DHT22;13057;50.978;11.034;2022-08-25T02:49:48;19.60;99.90
25058;DHT22;13057;50.978;11.034;2022-08-25T02:52:14;19.60;99.90
25058;DHT22;13057;50.978;11.034;2022-08-25T02:54:40;19.60;99.90
25058;DHT22;13057;50.978;11.034;2022-08-25T02:57:06;19.60;99.90
25058;DHT22;13057;50.978;11.034;2022-08-25T02:59:32;19.60;99.90
25058;DHT22;13057;50.978;11.034;2022-08-25T03:01:59;19.60;99.90
25058;DHT22;13057;50.978;11.034;2022-08-25T03:04:25;19.60;99.90
25058;DHT22;13057;50.978;11.034;2022-08-25T03:06:51;19.60;99.90
25058;DHT22;13057;50.978;11.034;2022-08-25T03:09:17;19.60;99.90
25058;DHT22;13057;50.978;11.034;2022-08-25T03:11:43;19.60;99.90
25058;DHT22;13057;50.978;11.034;2022-08-25T03:14:10;19.60;99.90
25058;DHT22;13057;50.978;11.034;2022-08-25T03:16:36;19.60;99.90
25058;DHT22;13057;50.978;11.034;2022-08-25T03:19:03;19.50;99.90
25058;DHT22;13057;50.978;11.034;2022-08-25T03:21:29;19.40;99.90
25058;DHT22;13057;50.978;11.034;2022-08-25T03:23:56;19.40;99.90
25058;DHT22;13057;50.978;11.034;2022-08-25T03:26:23;19.30;99.90
25058;DHT22;13057;50.978;11.034;2022-08-25T03:29:01;19.20;99.90
25058;DHT22;13057;50.978;11.034;2022-08-25T03:31:31;19.20;99.90
25058;DHT22;13057;50.978;11.034;2022-08-25T03:33:58;19.20;99.90
25058;DHT22;13057;50.978;11.034;2022-08-25T03:36:25;19.10;99.90
25058;DHT22;13057;50.978;11.034;2022-08-25T03:38:52;19.10;99.90
25058;DHT22;13057;50.978;11.034;2022-08-25T03:41:21;19.10;99.90
25058;DHT22;13057;50.978;11.034;2022-08-25T03:43:48;19.10;99.90
25058;DHT22;13057;50.978;11.034;2022-08-25T03:46:20;19.00;99.90
25058;DHT22;13057;50.978;11.034;2022-08-25T03:48:47;19.00;99.90
25058;DHT22;13057;50.978;11.034;2022-08-25T03:51:20;19.00;99.90
25058;DHT22;13057;50.978;11.034;2022-08-25T03:53:46;18.90;99.90
25058;DHT22;13057;50.978;11.034;2022-08-25T03:56:12;18.90;99.90
25058;DHT22;13057;50.978;11.034;2022-08-25T03:58:38;18.90;99.90
25058;DHT22;13057;50.978;11.034;2022-08-25T04:01:04;18.90;99.90
25058;DHT22;13057;50.978;11.034;2022-08-25T04:03:30;18.80;99.90
25058;DHT22;13057;50.978;11.034;2022-08-25T04:06:00;18.80;99.90
25058;DHT22;13057;50.978;11.034;2022-08-25T04:08:26;18.70;99.90
25058;DHT22;13057;50.978;11.034;2022-08-25T04:10:52;18.70;99.90
25058;DHT22;13057;50.978;11.034;2022-08-25T04:13:20;18.70;99.90
25058;DHT22;13057;50.978;11.034;2022-08-25T04:15:46;18.70;99.90
25058;DHT22;13057;50.978;11.034;2022-08-25T04:18:12;18.70;99.90
25058;DHT22;13057;50.978;11.034;2022-08-25T04:20:39;18.70;99.90
25058;DHT22;13057;50.978;11.034;2022-08-25T04:23:07;18.70;99.90
25058;DHT22;13057;50.978;11.034;2022-08-25T04:25:33;18.60;99.90
25058;DHT22;13057;50.978;11.034;2022-08-25T04:27:59;18.50;99.90
25058;DHT22;13057;50.978;11.034;2022-08-25T04:30:25;18.50;99.90
25058;DHT22;13057;50.978;11.034;2022-08-25T04:32:51;18.50;99.90
25058;DHT22;13057;50.978;11.034;2022-08-25T04:35:17;18.50;99.90
25058;DHT22;13057;50.978;11.034;2022-08-25T04:37:42;18.40;99.90
25058;DHT22;13057;50.978;11.034;2022-08-25T04:40:10;18.50;99.90
25058;DHT22;13057;50.978;11.034;2022-08-25T04:42:35;18.40;99.90
25058;DHT22;13057;50.978;11.034;2022-08-25T04:45:02;18.40;99.90
25058;DHT22;13057;50.978;11.034;2022-08-25T04:47:30;18.40;99.90
25058;DHT22;13057;50.978;11.034;2022-08-25T04:49:55;18.40;99.90
25058;DHT22;13057;50.978;11.034;2022-08-25T04:52:21;18.30;99.90
25058;DHT22;13057;50.978;11.034;2022-08-25T04:54:47;18.30;99.90
25058;DHT22;13057;50.978;11.034;2022-08-25T04:57:13;18.30;99.90
25058;DHT22;13057;50.978;11.034;2022-08-25T04:59:39;18.30;99.90
25058;DHT22;13057;50.978;11.034;2022-08-25T05:02:05;18.30;99.90
25058;DHT22;13057;50.978;11.034;2022-08-25T05:04:33;18.30;99.90
25058;DHT22;13057;50.978;11.034;2022-08-25T05:06:59;18.30;99.90
25058;DHT22;13057;50.978;11.034;2022-08-25T05:09:26;18.30;99.90
25058;DHT22;13057;50.978;11.034;2022-08-25T05:11:52;18.30;99.90
25058;DHT22;13057;50.978;11.034;2022-08-25T05:14:19;18.30;99.90
25058;DHT22;13057;50.978;11.034;2022-08-25T05:16:47;18.40;99.90
25058;DHT22;13057;50.978;11.034;2022-08-25T05:19:13;18.40;99.90
25058;DHT22;13057;50.978;11.034;2022-08-25T05:21:39;18.40;99.90
25058;DHT22;13057;50.978;11.034;2022-08-25T05:24:06;18.40;99.90
25058;DHT22;13057;50.978;11.034;2022-08-25T05:26:33;18.40;99.90
25058;DHT22;13057;50.978;11.034;2022-08-25T05:29:02;18.40;99.90
25058;DHT22;13057;50.978;11.034;2022-08-25T05:31:29;18.50;99.90
25058;DHT22;13057;50.978;11.034;2022-08-25T05:33:56;18.50;99.90
25058;DHT22;13057;50.978;11.034;2022-08-25T05:36:24;18.60;99.90
25058;DHT22;13057;50.978;11.034;2022-08-25T05:38:51;18.60;99.90
25058;DHT22;13057;50.978;11.034;2022-08-25T05:41:19;18.60;99.90
25058;DHT22;13057;50.978;11.034;2022-08-25T05:43:47;18.60;99.90
25058;DHT22;13057;50.978;11.034;2022-08-25T05:46:14;18.60;99.90
25058;DHT22;13057;50.978;11.034;2022-08-25T05:48:41;18.70;99.90
25058;DHT22;13057;50.978;11.034;2022-08-25T05:51:08;18.70;99.90
25058;DHT22;13057;50.978;11.034;2022-08-25T05:53:36;18.70;99.90
25058;DHT22;13057;50.978;11.034;2022-08-25T05:56:02;18.80;99.90
25058;DHT22;13057;50.978;11.034;2022-08-25T05:58:29;18.80;99.90
25058;DHT22;13057;50.978;11.034;2022-08-25T06:00:57;18.90;99.90
25058;DHT22;13057;50.978;11.034;2022-08-25T06:03:44;18.90;99.90
25058;DHT22;13057;50.978;11.034;2022-08-25T06:06:09;19.00;99.90
25058;DHT22;13057;50.978;11.034;2022-08-25T06:08:35;19.10;99.90
25058;DHT22;13057;50.978;11.034;2022-08-25T06:11:01;19.10;99.90
25058;DHT22;13057;50.978;11.034;2022-08-25T06:13:27;19.20;99.90
25058;DHT22;13057;50.978;11.034;2022-08-25T06:15:57;19.20;99.90
25058;DHT22;13057;50.978;11.034;2022-08-25T06:18:23;19.20;99.90
25058;DHT22;13057;50.978;11.034;2022-08-25T06:20:49;19.20;99.90
25058;DHT22;13057;50.978;11.034;2022-08-25T06:23:15;19.30;99.90
25058;DHT22;13057;50.978;11.034;2022-08-25T06:25:48;19.30;99.90
25058;DHT22;13057;50.978;11.034;2022-08-25T06:28:14;19.40;99.90
25058;DHT22;13057;50.978;11.034;2022-08-25T06:30:40;19.50;99.90
25058;DHT22;13057;50.978;11.034;2022-08-25T06:33:06;19.60;99.90
25058;DHT22;13057;50.978;11.034;2022-08-25T06:35:32;19.70;99.90
25058;DHT22;13057;50.978;11.034;2022-08-25T06:37:58;19.70;99.90
25058;DHT22;13057;50.978;11.034;2022-08-25T06:40:25;19.80;99.90
25058;DHT22;13057;50.978;11.034;2022-08-25T06:42:50;19.80;99.90
25058;DHT22;13057;50.978;11.034;2022-08-25T06:45:17;20.00;99.90
25058;DHT22;13057;50.978;11.034;2022-08-25T06:47:43;20.10;99.90
25058;DHT22;13057;50.978;11.034;2022-08-25T06:50:09;20.10;99.90
25058;DHT22;13057;50.978;11.034;2022-08-25T06:52:35;20.20;99.90
25058;DHT22;13057;50.978;11.034;2022-08-25T06:55:02;20.20;99.90
25058;DHT22;13057;50.978;11.034;2022-08-25T06:57:28;20.30;99.90
25058;DHT22;13057;50.978;11.034;2022-08-25T06:59:54;20.50;99.90
25058;DHT22;13057;50.978;11.034;2022-08-25T07:02:19;20.50;99.90
25058;DHT22;13057;50.978;11.034;2022-08-25T07:04:46;20.60;99.90
25058;DHT22;13057;50.978;11.034;2022-08-25T07:07:11;20.70;99.90
25058;DHT22;13057;50.978;11.034;2022-08-25T07:09:37;20.80;99.90
25058;DHT22;13057;50.978;11.034;2022-08-25T07:12:03;20.90;99.90
25058;DHT22;13057;50.978;11.034;2022-08-25T07:14:30;21.00;99.90
25058;DHT22;13057;50.978;11.034;2022-08-25T07:16:56;21.10;99.90
25058;DHT22;13057;50.978;11.034;2022-08-25T07:19:22;21.20;99.90
25058;DHT22;13057;50.978;11.034;2022-08-25T07:21:51;21.30;99.90
25058;DHT22;13057;50.978;11.034;2022-08-25T07:24:17;21.40;99.90
25058;DHT22;13057;50.978;11.034;2022-08-25T07:26:43;21.50;99.90
25058;DHT22;13057;50.978;11.034;2022-08-25T07:29:17;21.60;99.90
25058;DHT22;13057;50.978;11.034;2022-08-25T07:31:44;21.60;99.90
25058;DHT22;13057;50.978;11.034;2022-08-25T07:34:10;21.60;99.90
25058;DHT22;13057;50.978;11.034;2022-08-25T07:36:48;21.70;99.90
25058;DHT22;13057;50.978;11.034;2022-08-25T07:39:14;21.70;99.90
25058;DHT22;13057;50.978;11.034;2022-08-25T07:41:41;21.80;99.90
25058;DHT22;13057;50.978;11.034;2022-08-25T07:44:09;21.80;99.90
25058;DHT22;13057;50.978;11.034;2022-08-25T07:46:35;21.90;99.90
25058;DHT22;13057;50.978;11.034;2022-08-25T07:49:01;22.00;99.90
25058;DHT22;13057;50.978;11.034;2022-08-25T07:51:27;22.10;99.90
25058;DHT22;13057;50.978;11.034;2022-08-25T07:53:53;22.10;99.90
25058;DHT22;13057;50.978;11.034;2022-08-25T07:56:19;22.20;99.90
25058;DHT22;13057;50.978;11.034;2022-08-25T07:58:46;22.30;99.90
25058;DHT22;13057;50.978;11.034;2022-08-25T08:01:16;22.30;99.90
25058;DHT22;13057;50.978;11.034;2022-08-25T08:03:42;22.40;99.90
25058;DHT22;13057;50.978;11.034;2022-08-25T08:06:09;22.50;99.90
25058;DHT22;13057;50.978;11.034;2022-08-25T08:08:40;22.60;99.90
25058;DHT22;13057;50.978;11.034;2022-08-25T08:11:19;22.60;99.90
25058;DHT22;13057;50.978;11.034;2022-08-25T08:13:46;22.70;99.90
25058;DHT22;13057;50.978;11.034;2022-08-25T08:16:14;22.80;99.90
25058;DHT22;13057;50.978;11.034;2022-08-25T08:18:42;22.80;99.90
25058;DHT22;13057;50.978;11.034;2022-08-25T08:21:14;22.90;99.90
25058;DHT22;13057;50.978;11.034;2022-08-25T08:23:40;22.90;99.90
25058;DHT22;13057;50.978;11.034;2022-08-25T08:26:06;22.90;99.90
25058;DHT22;13057;50.978;11.034;2022-08-25T08:28:32;22.90;99.90
25058;DHT22;13057;50.978;11.034;2022-08-25T08:30:58;23.00;99.90
25058;DHT22;13057;50.978;11.034;2022-08-25T08:33:24;23.00;99.90
25058;DHT22;13057;50.978;11.034;2022-08-25T08:36:03;23.00;99.90
25058;DHT22;13057;50.978;11.034;2022-08-25T08:38:30;23.10;99.90
25058;DHT22;13057;50.978;11.034;2022-08-25T08:41:15;23.20;99.90
25058;DHT22;13057;50.978;11.034;2022-08-25T08:44:03;23.20;99.90
25058;DHT22;13057;50.978;11.034;2022-08-25T08:46:39;23.30;99.90
25058;DHT22;13057;50.978;11.034;2022-08-25T08:49:18;23.40;99.90
25058;DHT22;13057;50.978;11.034;2022-08-25T08:51:55;23.40;99.90
25058;DHT22;13057;50.978;11.034;2022-08-25T08:54:24;23.50;99.90
25058;DHT22;13057;50.978;11.034;2022-08-25T08:56:55;23.50;99.90
25058;DHT22;13057;50.978;11.034;2022-08-25T08:59:27;23.50;99.90
25058;DHT22;13057;50.978;11.034;2022-08-25T09:01:57;23.60;99.90
25058;DHT22;13057;50.978;11.034;2022-08-25T09:04:33;23.60;99.90
25058;DHT22;13057;50.978;11.034;2022-08-25T09:07:03;23.70;99.90
25058;DHT22;13057;50.978;11.034;2022-08-25T09:09:34;23.70;99.90
25058;DHT22;13057;50.978;11.034;2022-08-25T09:12:13;23.80;99.90
25058;DHT22;13057;50.978;11.034;2022-08-25T09:14:53;23.80;99.90
25058;DHT22;13057;50.978;11.034;2022-08-25T09:17:40;23.90;99.90
25058;DHT22;13057;50.978;11.034;2022-08-25T09:20:22;23.90;99.60
25058;DHT22;13057;50.978;11.034;2022-08-25T09:23:07;23.90;99.60
25058;DHT22;13057;50.978;11.034;2022-08-25T09:25:54;24.00;99.40
25058;DHT22;13057;50.978;11.034;2022-08-25T09:28:31;24.10;99.40
25058;DHT22;13057;50.978;11.034;2022-08-25T09:31:04;24.20;99.30
25058;DHT22;13057;50.978;11.034;2022-08-25T09:33:34;24.30;99.30
25058;DHT22;13057;50.978;11.034;2022-08-25T09:36:00;24.40;99.10
25058;DHT22;13057;50.978;11.034;2022-08-25T09:38:27;24.50;99.20
25058;DHT22;13057;50.978;11.034;2022-08-25T09:40:57;24.60;98.80
25058;DHT22;13057;50.978;11.034;2022-08-25T09:43:43;24.70;98.40
25058;DHT22;13057;50.978;11.034;2022-08-25T09:46:14;24.80;98.30
25058;DHT22;13057;50.978;11.034;2022-08-25T09:48:50;24.90;98.20
25058;DHT22;13057;50.978;11.034;2022-08-25T09:51:32;24.90;98.00
25058;DHT22;13057;50.978;11.034;2022-08-25T09:54:04;25.10;97.90
25058;DHT22;13057;50.978;11.034;2022-08-25T09:56:50;25.10;97.80
25058;DHT22;13057;50.978;11.034;2022-08-25T09:59:21;25.20;97.30
25058;DHT22;13057;50.978;11.034;2022-08-25T10:01:52;25.30;97.10
25058;DHT22;13057;50.978;11.034;2022-08-25T10:04:31;25.40;97.20
25058;DHT22;13057;50.978;11.034;2022-08-25T10:07:00;25.40;97.10
25058;DHT22;13057;50.978;11.034;2022-08-25T10:09:33;25.40;96.90
25058;DHT22;13057;50.978;11.034;2022-08-25T10:12:00;25.40;97.20
25058;DHT22;13057;50.978;11.034;2022-08-25T10:14:34;25.60;96.70
25058;DHT22;13057;50.978;11.034;2022-08-25T10:17:29;25.70;96.50
25058;DHT22;13057;50.978;11.034;2022-08-25T10:20:15;25.70;96.40
25058;DHT22;13057;50.978;11.034;2022-08-25T10:22:44;25.90;96.20
25058;DHT22;13057;50.978;11.034;2022-08-25T10:25:13;25.90;96.00
25058;DHT22;13057;50.978;11.034;2022-08-25T10:28:04;26.00;95.90
25058;DHT22;13057;50.978;11.034;2022-08-25T10:30:50;26.10;95.70
25058;DHT22;13057;50.978;11.034;2022-08-25T10:36:21;26.20;95.00
25058;DHT22;13057;50.978;11.034;2022-08-25T10:38:56;26.30;94.90
25058;DHT22;13057;50.978;11.034;2022-08-25T10:44:22;26.40;94.50
25058;DHT22;13057;50.978;11.034;2022-08-25T10:47:31;26.50;93.80
25058;DHT22;13057;50.978;11.034;2022-08-25T10:50:08;26.60;93.80
25058;DHT22;13057;50.978;11.034;2022-08-25T10:52:59;26.60;93.80
25058;DHT22;13057;50.978;11.034;2022-08-25T10:55:43;26.60;93.90
25058;DHT22;13057;50.978;11.034;2022-08-25T10:58:23;26.70;93.80
25058;DHT22;13057;50.978;11.034;2022-08-25T11:06:49;26.70;92.90
25058;DHT22;13057;50.978;11.034;2022-08-25T11:09:24;26.70;92.90
25058;DHT22;13057;50.978;11.034;2022-08-25T11:12:02;26.70;93.00
25058;DHT22;13057;50.978;11.034;2022-08-25T11:14:33;26.70;92.80
25058;DHT22;13057;50.978;11.034;2022-08-25T11:17:16;26.70;92.70
25058;DHT22;13057;50.978;11.034;2022-08-25T11:19:48;26.70;92.10
25058;DHT22;13057;50.978;11.034;2022-08-25T11:22:33;26.70;92.70
25058;DHT22;13057;50.978;11.034;2022-08-25T11:25:10;26.70;92.60
25058;DHT22;13057;50.978;11.034;2022-08-25T11:27:45;26.80;92.40
25058;DHT22;13057;50.978;11.034;2022-08-25T11:30:16;26.80;92.30
25058;DHT22;13057;50.978;11.034;2022-08-25T11:32:47;26.80;91.90
25058;DHT22;13057;50.978;11.034;2022-08-25T11:35:16;26.80;91.40
25058;DHT22;13057;50.978;11.034;2022-08-25T11:37:57;26.80;91.90
25058;DHT22;13057;50.978;11.034;2022-08-25T11:40:37;26.90;92.00
25058;DHT22;13057;50.978;11.034;2022-08-25T11:46:08;26.90;91.40
25058;DHT22;13057;50.978;11.034;2022-08-25T11:51:41;26.90;91.50
25058;DHT22;13057;50.978;11.034;2022-08-25T11:56:57;27.00;91.20
25058;DHT22;13057;50.978;11.034;2022-08-25T12:02:37;27.00;91.10
25058;DHT22;13057;50.978;11.034;2022-08-25T12:05:10;27.10;90.80
25058;DHT22;13057;50.978;11.034;2022-08-25T12:07:59;27.20;91.00
25058;DHT22;13057;50.978;11.034;2022-08-25T12:13:38;27.20;91.20
25058;DHT22;13057;50.978;11.034;2022-08-25T12:16:05;27.20;90.30
25058;DHT22;13057;50.978;11.034;2022-08-25T12:18:41;27.20;90.00
25058;DHT22;13057;50.978;11.034;2022-08-25T12:21:09;27.10;89.60
25058;DHT22;13057;50.978;11.034;2022-08-25T12:26:25;27.20;90.60
25058;DHT22;13057;50.978;11.034;2022-08-25T12:29:06;27.20;90.60
25058;DHT22;13057;50.978;11.034;2022-08-25T12:31:58;27.20;90.20
25058;DHT22;13057;50.978;11.034;2022-08-25T12:34:45;27.20;90.50
25058;DHT22;13057;50.978;11.034;2022-08-25T12:37:20;27.30;90.10
25058;DHT22;13057;50.978;11.034;2022-08-25T12:40:04;27.30;90.30
25058;DHT22;13057;50.978;11.034;2022-08-25T12:42:34;27.40;90.00
25058;DHT22;13057;50.978;11.034;2022-08-25T12:45:33;27.40;90.30
25058;DHT22;13057;50.978;11.034;2022-08-25T12:51:16;27.50;89.30
25058;DHT22;13057;50.978;11.034;2022-08-25T12:53:52;27.50;89.50
25058;DHT22;13057;50.978;11.034;2022-08-25T12:56:33;27.40;88.70
25058;DHT22;13057;50.978;11.034;2022-08-25T12:59:20;27.50;88.70
25058;DHT22;13057;50.978;11.034;2022-08-25T13:02:00;27.50;87.60
25058;DHT22;13057;50.978;11.034;2022-08-25T13:04:57;27.50;87.50
25058;DHT22;13057;50.978;11.034;2022-08-25T13:07:53;27.50;87.80
25058;DHT22;13057;50.978;11.034;2022-08-25T13:10:40;27.50;87.70
25058;DHT22;13057;50.978;11.034;2022-08-25T13:13:09;27.50;88.20
25058;DHT22;13057;50.978;11.034;2022-08-25T13:15:41;27.50;88.20
25058;DHT22;13057;50.978;11.034;2022-08-25T13:18:24;27.50;86.40
25058;DHT22;13057;50.978;11.034;2022-08-25T13:21:00;27.50;86.60
25058;DHT22;13057;50.978;11.034;2022-08-25T13:23:28;27.50;87.40
25058;DHT22;13057;50.978;11.034;2022-08-25T13:25:55;27.50;87.70
25058;DHT22;13057;50.978;11.034;2022-08-25T13:28:26;27.50;85.90
25058;DHT22;13057;50.978;11.034;2022-08-25T13:31:03;27.50;87.20
25058;DHT22;13057;50.978;11.034;2022-08-25T13:33:29;27.50;86.90
25058;DHT22;13057;50.978;11.034;2022-08-25T13:35:57;27.50;86.40
25058;DHT22;13057;50.978;11.034;2022-08-25T13:38:35;27.60;87.10
25058;DHT22;13057;50.978;11.034;2022-08-25T13:41:04;27.60;86.90
25058;DHT22;13057;50.978;11.034;2022-08-25T13:43:30;27.60;87.00
25058;DHT22;13057;50.978;11.034;2022-08-25T13:45:56;27.60;86.20
25058;DHT22;13057;50.978;11.034;2022-08-25T13:48:34;27.60;87.20
25058;DHT22;13057;50.978;11.034;2022-08-25T13:51:20;27.70;86.90
25058;DHT22;13057;50.978;11.034;2022-08-25T13:53:49;27.70;87.80
25058;DHT22;13057;50.978;11.034;2022-08-25T13:56:25;27.80;86.30
25058;DHT22;13057;50.978;11.034;2022-08-25T13:58:53;27.80;86.00
25058;DHT22;13057;50.978;11.034;2022-08-25T14:01:24;27.90;85.80
25058;DHT22;13057;50.978;11.034;2022-08-25T14:03:53;28.00;85.70
25058;DHT22;13057;50.978;11.034;2022-08-25T14:06:22;28.00;85.90
25058;DHT22;13057;50.978;11.034;2022-08-25T14:09:13;28.00;85.20
25058;DHT22;13057;50.978;11.034;2022-08-25T14:11:47;28.00;85.00
25058;DHT22;13057;50.978;11.034;2022-08-25T14:14:31;28.00;84.80
25058;DHT22;13057;50.978;11.034;2022-08-25T14:17:07;28.00;85.10
25058;DHT22;13057;50.978;11.034;2022-08-25T14:19:36;28.00;85.60
25058;DHT22;13057;50.978;11.034;2022-08-25T14:22:11;27.90;85.40
25058;DHT22;13057;50.978;11.034;2022-08-25T14:24:37;27.90;84.00
25058;DHT22;13057;50.978;11.034;2022-08-25T14:27:04;28.00;85.20
25058;DHT22;13057;50.978;11.034;2022-08-25T14:29:30;28.00;84.50
25058;DHT22;13057;50.978;11.034;2022-08-25T14:31:57;28.00;85.00
25058;DHT22;13057;50.978;11.034;2022-08-25T14:34:28;28.00;85.70
25058;DHT22;13057;50.978;11.034;2022-08-25T14:36:55;28.00;84.80
25058;DHT22;13057;50.978;11.034;2022-08-25T14:39:22;28.00;84.90
25058;DHT22;13057;50.978;11.034;2022-08-25T14:41:48;28.00;85.10
25058;DHT22;13057;50.978;11.034;2022-08-25T14:44:16;28.00;84.90
25058;DHT22;13057;50.978;11.034;2022-08-25T14:46:53;27.90;85.30
25058;DHT22;13057;50.978;11.034;2022-08-25T14:49:23;28.00;84.60
25058;DHT22;13057;50.978;11.034;2022-08-25T14:51:52;28.00;84.60
25058;DHT22;13057;50.978;11.034;2022-08-25T14:54:26;28.00;84.40
25058;DHT22;13057;50.978;11.034;2022-08-25T14:56:52;27.90;84.70
25058;DHT22;13057;50.978;11.034;2022-08-25T14:59:18;27.90;84.20
25058;DHT22;13057;50.978;11.034;2022-08-25T15:01:45;27.90;84.10
25058;DHT22;13057;50.978;11.034;2022-08-25T15:04:14;27.90;83.60
25058;DHT22;13057;50.978;11.034;2022-08-25T15:06:42;27.90;84.50
25058;DHT22;13057;50.978;11.034;2022-08-25T15:09:10;27.90;84.20
25058;DHT22;13057;50.978;11.034;2022-08-25T15:11:40;27.80;83.80
25058;DHT22;13057;50.978;11.034;2022-08-25T15:14:07;27.80;84.50
25058;DHT22;13057;50.978;11.034;2022-08-25T15:16:45;27.80;84.50
25058;DHT22;13057;50.978;11.034;2022-08-25T15:19:14;27.80;83.60
25058;DHT22;13057;50.978;11.034;2022-08-25T15:21:42;27.80;84.20
25058;DHT22;13057;50.978;11.034;2022-08-25T15:24:09;27.80;83.70
25058;DHT22;13057;50.978;11.034;2022-08-25T15:26:43;27.80;84.50
25058;DHT22;13057;50.978;11.034;2022-08-25T15:29:11;27.80;83.90
25058;DHT22;13057;50.978;11.034;2022-08-25T15:31:49;27.80;83.80
25058;DHT22;13057;50.978;11.034;2022-08-25T15:34:16;27.80;83.40
25058;DHT22;13057;50.978;11.034;2022-08-25T15:36:41;27.80;83.20
25058;DHT22;13057;50.978;11.034;2022-08-25T15:39:07;27.80;83.70
25058;DHT22;13057;50.978;11.034;2022-08-25T15:41:34;27.90;83.40
25058;DHT22;13057;50.978;11.034;2022-08-25T15:44:03;27.80;83.70
25058;DHT22;13057;50.978;11.034;2022-08-25T15:46:33;27.80;83.80
25058;DHT22;13057;50.978;11.034;2022-08-25T15:49:00;27.80;84.40
25058;DHT22;13057;50.978;11.034;2022-08-25T15:51:27;27.80;84.70
25058;DHT22;13057;50.978;11.034;2022-08-25T15:53:53;27.80;84.70
25058;DHT22;13057;50.978;11.034;2022-08-25T15:56:20;27.80;84.70
25058;DHT22;13057;50.978;11.034;2022-08-25T15:58:48;27.80;83.90
25058;DHT22;13057;50.978;11.034;2022-08-25T16:01:19;27.80;84.70
25058;DHT22;13057;50.978;11.034;2022-08-25T16:03:45;27.70;83.30
25058;DHT22;13057;50.978;11.034;2022-08-25T16:06:11;27.70;83.80
25058;DHT22;13057;50.978;11.034;2022-08-25T16:08:37;27.70;83.10